This is the latest recevied weather packets stored in our database for station/object W4OA. If no packets are shown the sender has not sent any weather packets the latest 10 day(s).
| Time | Temp. | Humidity | Pressure | Rain* | Wind** | Luminosity | Snow |
|---|---|---|---|---|---|---|---|
| 1777903198 | 17.78° C | 47% | 1012 hPa | 0 mm | - | 0 W/m² | - |
| 1777902899 | 17.78° C | 48% | 1012 hPa | 0 mm | - | 0 W/m² | - |
| 1777902598 | 17.78° C | 47% | 1012 hPa | 0 mm | - | 0 W/m² | - |
| 1777902298 | 17.78° C | 47% | 1012 hPa | 0 mm | - | 0 W/m² | - |
| 1777901998 | 17.22° C | 48% | 1012 hPa | 0 mm | - | 0 W/m² | - |
| 1777901699 | 16.67° C | 50% | 1012 hPa | 0 mm | - | 0 W/m² | - |
| 1777901399 | 16.67° C | 49% | 1012 hPa | 0 mm | - | 0 W/m² | - |
| 1777901098 | 16.11° C | 54% | 1012 hPa | 0 mm | - | 0 W/m² | - |
| 1777900799 | 15.56° C | 55% | 1012 hPa | 0 mm | - | 0 W/m² | - |
| 1777900499 | 15.56° C | 57% | 1012 hPa | 0 mm | - | 0 W/m² | - |
| 1777900201 | 13.89° C | 64% | 1012 hPa | 0 mm | - | 0 W/m² | - |
| 1777899619 | 11.67° C | 87% | 1012 hPa | 0 mm | - | 0 W/m² | - |
| 1777899299 | 11.11° C | 89% | 1012 hPa | 0 mm | - | 0 W/m² | - |
| 1777899001 | 11.11° C | 90% | 1012 hPa | 0 mm | - | 0 W/m² | - |
| 1777898698 | 10.56° C | 91% | 1012 hPa | 0 mm | - | 0 W/m² | - |
| 1777898398 | 10° C | 92% | 1012 hPa | 0 mm | - | 0 W/m² | - |
| 1777898098 | 9.44° C | 92% | 1012 hPa | 0 mm | - | 0 W/m² | - |
| 1777897800 | 9.44° C | 92% | 1012 hPa | 0 mm | - | 0 W/m² | - |
| 1777897499 | 8.89° C | 92% | 1012 hPa | 0 mm | - | 0 W/m² | - |
| 1777897199 | 8.33° C | 92% | 1012 hPa | 0 mm | - | 0 W/m² | - |
| 1777896898 | 8.33° C | 92% | 1012 hPa | 0 mm | - | 0 W/m² | - |
| 1777896599 | 8.33° C | 92% | 1012 hPa | 0 mm | - | 0 W/m² | - |
| 1777896300 | 7.78° C | 92% | 1012 hPa | 0 mm | - | 0 W/m² | - |
| 1777895998 | 7.78° C | 92% | 1012 hPa | 0 mm | - | 0 W/m² | - |
| 1777895699 | 7.22° C | 92% | 1012 hPa | 0 mm | - | 0 W/m² | - |
* Rain latest hour (hover to see other rain measurements)
** Current wind speed in m/s (hover to see current wind gust speed)